sensor_id;sensor_type;location;lat;lon;timestamp;pressure;altitude;pressure_sealevel;temperature;humidity
11212;BME280;5663;50.864;12.096;2023-04-08T00:01:59;99724.41;;;8.53;63.15
11212;BME280;5663;50.864;12.096;2023-04-08T00:04:27;99724.50;;;8.52;63.62
11212;BME280;5663;50.864;12.096;2023-04-08T00:06:57;99729.66;;;8.52;63.32
11212;BME280;5663;50.864;12.096;2023-04-08T00:09:24;99720.22;;;8.51;63.66
11212;BME280;5663;50.864;12.096;2023-04-08T00:11:52;99716.72;;;8.52;63.23
11212;BME280;5663;50.864;12.096;2023-04-08T00:14:24;99634.00;;;7.99;63.69
11212;BME280;5663;50.864;12.096;2023-04-08T00:16:51;99721.34;;;8.44;63.67
11212;BME280;5663;50.864;12.096;2023-04-08T00:19:20;99715.94;;;8.50;63.68
11212;BME280;5663;50.864;12.096;2023-04-08T00:21:48;99728.19;;;8.45;63.73
11212;BME280;5663;50.864;12.096;2023-04-08T00:24:16;99714.47;;;8.43;64.34
11212;BME280;5663;50.864;12.096;2023-04-08T00:26:44;99717.00;;;8.44;64.33
11212;BME280;5663;50.864;12.096;2023-04-08T00:29:12;99707.63;;;8.40;64.37
11212;BME280;5663;50.864;12.096;2023-04-08T00:31:41;99717.94;;;8.42;64.49
11212;BME280;5663;50.864;12.096;2023-04-08T00:34:10;99709.56;;;8.33;64.88
11212;BME280;5663;50.864;12.096;2023-04-08T00:36:38;99724.03;;;8.41;65.26
11212;BME280;5663;50.864;12.096;2023-04-08T00:39:06;99709.69;;;8.30;65.15
11212;BME280;5663;50.864;12.096;2023-04-08T00:41:34;99718.94;;;8.37;64.83
11212;BME280;5663;50.864;12.096;2023-04-08T00:44:01;99715.47;;;8.38;65.35
11212;BME280;5663;50.864;12.096;2023-04-08T00:46:30;99723.13;;;8.42;65.20
11212;BME280;5663;50.864;12.096;2023-04-08T00:48:59;99718.94;;;8.37;65.36
11212;BME280;5663;50.864;12.096;2023-04-08T00:51:28;99674.06;;;8.12;65.60
11212;BME280;5663;50.864;12.096;2023-04-08T00:53:56;99707.88;;;8.32;65.63
11212;BME280;5663;50.864;12.096;2023-04-08T00:56:25;99720.59;;;8.40;65.32
11212;BME280;5663;50.864;12.096;2023-04-08T00:58:53;99718.84;;;8.41;65.81
11212;BME280;5663;50.864;12.096;2023-04-08T01:01:25;99722.41;;;8.38;65.84
11212;BME280;5663;50.864;12.096;2023-04-08T01:04:01;99719.75;;;8.39;65.74
11212;BME280;5663;50.864;12.096;2023-04-08T01:06:39;99725.84;;;8.38;65.71
11212;BME280;5663;50.864;12.096;2023-04-08T01:09:08;99713.81;;;8.36;65.75
11212;BME280;5663;50.864;12.096;2023-04-08T01:11:37;99719.75;;;8.39;65.88
11212;BME280;5663;50.864;12.096;2023-04-08T01:14:08;99721.44;;;8.41;65.98
11212;BME280;5663;50.864;12.096;2023-04-08T01:16:39;99728.31;;;8.42;65.72
11212;BME280;5663;50.864;12.096;2023-04-08T01:19:16;99714.56;;;8.39;65.98
11212;BME280;5663;50.864;12.096;2023-04-08T01:21:48;99729.22;;;8.41;65.78
11212;BME280;5663;50.864;12.096;2023-04-08T01:24:24;99670.75;;;8.08;66.26
11212;BME280;5663;50.864;12.096;2023-04-08T01:26:55;99718.91;;;8.39;66.61
11212;BME280;5663;50.864;12.096;2023-04-08T01:29:25;99722.28;;;8.41;66.18
11212;BME280;5663;50.864;12.096;2023-04-08T01:31:53;99726.72;;;8.37;66.35
11212;BME280;5663;50.864;12.096;2023-04-08T01:34:23;99724.34;;;8.31;66.73
11212;BME280;5663;50.864;12.096;2023-04-08T01:36:51;99722.53;;;8.33;66.95
11212;BME280;5663;50.864;12.096;2023-04-08T01:39:20;99725.13;;;8.33;66.54
11212;BME280;5663;50.864;12.096;2023-04-08T01:41:48;99725.88;;;8.37;66.72
11212;BME280;5663;50.864;12.096;2023-04-08T01:44:20;99707.31;;;8.24;67.00
11212;BME280;5663;50.864;12.096;2023-04-08T01:46:49;99726.72;;;8.37;66.97
11212;BME280;5663;50.864;12.096;2023-04-08T01:49:18;99686.94;;;8.15;67.07
11212;BME280;5663;50.864;12.096;2023-04-08T01:51:47;99725.00;;;8.36;67.09
11212;BME280;5663;50.864;12.096;2023-04-08T01:54:15;99719.94;;;8.33;67.56
11212;BME280;5663;50.864;12.096;2023-04-08T01:56:44;99720.91;;;8.31;67.30
11212;BME280;5663;50.864;12.096;2023-04-08T01:59:13;99720.44;;;8.20;67.01
11212;BME280;5663;50.864;12.096;2023-04-08T02:01:44;99721.94;;;8.25;67.61
11212;BME280;5663;50.864;12.096;2023-04-08T02:04:13;99724.72;;;8.21;67.27
11212;BME280;5663;50.864;12.096;2023-04-08T02:06:40;99730.63;;;8.24;67.03
11212;BME280;5663;50.864;12.096;2023-04-08T02:09:10;99729.72;;;8.25;67.53
11212;BME280;5663;50.864;12.096;2023-04-08T02:11:37;99731.56;;;8.22;67.15
11212;BME280;5663;50.864;12.096;2023-04-08T02:14:05;99735.06;;;8.21;68.13
11212;BME280;5663;50.864;12.096;2023-04-08T02:16:37;99728.31;;;8.17;67.73
11212;BME280;5663;50.864;12.096;2023-04-08T02:19:13;99730.97;;;8.15;68.53
11212;BME280;5663;50.864;12.096;2023-04-08T02:21:45;99741.34;;;8.15;68.11
11212;BME280;5663;50.864;12.096;2023-04-08T02:24:14;99736.16;;;8.15;68.47
11212;BME280;5663;50.864;12.096;2023-04-08T02:26:44;99729.47;;;8.08;68.69
11212;BME280;5663;50.864;12.096;2023-04-08T02:29:14;99736.34;;;8.09;68.56
11212;BME280;5663;50.864;12.096;2023-04-08T02:31:42;99732.81;;;8.11;68.56
11212;BME280;5663;50.864;12.096;2023-04-08T02:34:12;99734.47;;;8.14;68.18
11212;BME280;5663;50.864;12.096;2023-04-08T02:36:41;99728.38;;;8.15;68.39
11212;BME280;5663;50.864;12.096;2023-04-08T02:39:12;99732.66;;;8.16;68.33
11212;BME280;5663;50.864;12.096;2023-04-08T02:41:40;99730.00;;;8.18;68.21
11212;BME280;5663;50.864;12.096;2023-04-08T02:44:08;99731.72;;;8.19;68.25
11212;BME280;5663;50.864;12.096;2023-04-08T02:46:36;99730.88;;;8.18;67.69
11212;BME280;5663;50.864;12.096;2023-04-08T02:49:03;99736.94;;;8.17;67.77
11212;BME280;5663;50.864;12.096;2023-04-08T02:51:33;99693.75;;;7.93;67.98
11212;BME280;5663;50.864;12.096;2023-04-08T02:54:01;99730.97;;;8.15;67.98
11212;BME280;5663;50.864;12.096;2023-04-08T02:56:29;99718.44;;;8.03;68.36
11212;BME280;5663;50.864;12.096;2023-04-08T02:58:56;99721.78;;;8.06;68.28
11212;BME280;5663;50.864;12.096;2023-04-08T03:01:24;99739.66;;;8.14;67.97
11212;BME280;5663;50.864;12.096;2023-04-08T03:03:52;99714.16;;;8.02;68.29
11212;BME280;5663;50.864;12.096;2023-04-08T03:06:19;99704.75;;;7.99;68.22
11212;BME280;5663;50.864;12.096;2023-04-08T03:08:49;99729.38;;;8.11;68.31
11212;BME280;5663;50.864;12.096;2023-04-08T03:11:17;99722.53;;;8.10;68.67
11212;BME280;5663;50.864;12.096;2023-04-08T03:13:44;99731.16;;;8.09;68.76
11212;BME280;5663;50.864;12.096;2023-04-08T03:16:12;99725.22;;;8.07;68.77
11212;BME280;5663;50.864;12.096;2023-04-08T03:18:40;99733.06;;;8.04;69.35
11212;BME280;5663;50.864;12.096;2023-04-08T03:21:07;99732.16;;;8.05;68.57
11212;BME280;5663;50.864;12.096;2023-04-08T03:23:35;99733.97;;;8.03;68.85
11212;BME280;5663;50.864;12.096;2023-04-08T03:26:04;99733.97;;;8.03;68.76
11212;BME280;5663;50.864;12.096;2023-04-08T03:28:32;99734.84;;;8.02;69.30
11212;BME280;5663;50.864;12.096;2023-04-08T03:31:00;99736.56;;;8.03;68.99
11212;BME280;5663;50.864;12.096;2023-04-08T03:33:29;99737.44;;;8.02;69.01
11212;BME280;5663;50.864;12.096;2023-04-08T03:35:56;99735.84;;;7.99;68.99
11212;BME280;5663;50.864;12.096;2023-04-08T03:38:24;99733.50;;;7.92;69.35
11212;BME280;5663;50.864;12.096;2023-04-08T03:40:52;99737.19;;;7.84;69.55
11212;BME280;5663;50.864;12.096;2023-04-08T03:43:20;99734.50;;;7.87;69.95
11212;BME280;5663;50.864;12.096;2023-04-08T03:45:49;99733.50;;;7.92;69.56
11212;BME280;5663;50.864;12.096;2023-04-08T03:48:17;99741.22;;;7.93;70.03
11212;BME280;5663;50.864;12.096;2023-04-08T03:50:46;99745.44;;;7.96;69.44
11212;BME280;5663;50.864;12.096;2023-04-08T03:53:14;99737.00;;;7.90;69.14
11212;BME280;5663;50.864;12.096;2023-04-08T03:55:41;99742.97;;;7.93;69.41
11212;BME280;5663;50.864;12.096;2023-04-08T03:58:09;99709.06;;;7.74;69.75
11212;BME280;5663;50.864;12.096;2023-04-08T04:00:42;99747.13;;;7.97;70.09
11212;BME280;5663;50.864;12.096;2023-04-08T04:03:10;99715.13;;;7.74;69.61
11212;BME280;5663;50.864;12.096;2023-04-08T04:05:38;99760.94;;;7.97;69.45
11212;BME280;5663;50.864;12.096;2023-04-08T04:08:06;99758.34;;;7.97;69.21
11212;BME280;5663;50.864;12.096;2023-04-08T04:10:35;99752.41;;;7.94;69.72
11212;BME280;5663;50.864;12.096;2023-04-08T04:13:02;99762.66;;;7.97;69.55
11212;BME280;5663;50.864;12.096;2023-04-08T04:15:30;99776.44;;;7.99;69.41
11212;BME280;5663;50.864;12.096;2023-04-08T04:18:01;99775.59;;;7.98;69.19
11212;BME280;5663;50.864;12.096;2023-04-08T04:20:28;99752.72;;;7.84;68.91
11212;BME280;5663;50.864;12.096;2023-04-08T04:22:57;99772.84;;;8.03;69.02
11212;BME280;5663;50.864;12.096;2023-04-08T04:25:24;99778.06;;;8.01;69.57
11212;BME280;5663;50.864;12.096;2023-04-08T04:27:52;99752.72;;;7.84;69.08
11212;BME280;5663;50.864;12.096;2023-04-08T04:30:19;99756.22;;;7.83;69.32
11212;BME280;5663;50.864;12.096;2023-04-08T04:32:47;99758.84;;;7.82;69.84
11212;BME280;5663;50.864;12.096;2023-04-08T04:35:17;99783.63;;;7.89;69.62
11212;BME280;5663;50.864;12.096;2023-04-08T04:37:44;99785.38;;;7.88;70.33
11212;BME280;5663;50.864;12.096;2023-04-08T04:40:12;99786.19;;;7.90;70.69
11212;BME280;5663;50.864;12.096;2023-04-08T04:42:40;99789.78;;;7.86;70.50
11212;BME280;5663;50.864;12.096;2023-04-08T04:45:09;99793.97;;;7.90;70.64
11212;BME280;5663;50.864;12.096;2023-04-08T04:47:37;99799.03;;;7.94;70.25
11212;BME280;5663;50.864;12.096;2023-04-08T04:50:05;99782.03;;;7.86;70.03
11212;BME280;5663;50.864;12.096;2023-04-08T04:52:37;99791.22;;;7.95;70.35
11212;BME280;5663;50.864;12.096;2023-04-08T04:55:05;99784.34;;;7.94;69.90
11212;BME280;5663;50.864;12.096;2023-04-08T04:57:33;99804.19;;;7.94;70.56
11212;BME280;5663;50.864;12.096;2023-04-08T05:00:00;99796.50;;;7.92;70.66
11212;BME280;5663;50.864;12.096;2023-04-08T05:02:28;99799.16;;;7.90;70.16
11212;BME280;5663;50.864;12.096;2023-04-08T05:04:57;99801.03;;;7.85;70.69
11212;BME280;5663;50.864;12.096;2023-04-08T05:07:24;99804.50;;;7.84;71.04
11212;BME280;5663;50.864;12.096;2023-04-08T05:09:54;99807.84;;;7.88;70.47
11212;BME280;5663;50.864;12.096;2023-04-08T05:12:21;99805.16;;;7.91;70.83
11212;BME280;5663;50.864;12.096;2023-04-08T05:14:49;99804.41;;;7.87;70.85
11212;BME280;5663;50.864;12.096;2023-04-08T05:17:16;99807.84;;;7.88;70.57
11212;BME280;5663;50.864;12.096;2023-04-08T05:19:44;99802.63;;;7.89;70.15
11212;BME280;5663;50.864;12.096;2023-04-08T05:22:12;99800.94;;;7.88;70.59
11212;BME280;5663;50.864;12.096;2023-04-08T05:24:40;99806.84;;;7.92;70.49
11212;BME280;5663;50.864;12.096;2023-04-08T05:27:09;99810.34;;;7.91;70.39
11212;BME280;5663;50.864;12.096;2023-04-08T05:29:37;99806.00;;;7.92;70.61
11212;BME280;5663;50.864;12.096;2023-04-08T05:32:04;99812.13;;;7.89;70.67
11212;BME280;5663;50.864;12.096;2023-04-08T05:34:32;99824.13;;;7.92;70.77
11212;BME280;5663;50.864;12.096;2023-04-08T05:37:00;99817.56;;;7.81;70.73
11212;BME280;5663;50.864;12.096;2023-04-08T05:39:28;99828.50;;;7.89;71.42
11212;BME280;5663;50.864;12.096;2023-04-08T05:41:55;99829.63;;;7.82;71.61
11212;BME280;5663;50.864;12.096;2023-04-08T05:44:24;99823.63;;;7.80;70.88
11212;BME280;5663;50.864;12.096;2023-04-08T05:46:52;99793.28;;;7.59;71.54
11212;BME280;5663;50.864;12.096;2023-04-08T05:49:20;99832.09;;;7.85;71.48
11212;BME280;5663;50.864;12.096;2023-04-08T05:51:48;99825.91;;;7.89;71.09
11212;BME280;5663;50.864;12.096;2023-04-08T05:54:15;99826.72;;;7.92;71.20
11212;BME280;5663;50.864;12.096;2023-04-08T05:56:43;99816.28;;;7.95;70.95
11212;BME280;5663;50.864;12.096;2023-04-08T05:59:11;99815.63;;;7.88;70.99
11212;BME280;5663;50.864;12.096;2023-04-08T06:01:40;99836.78;;;8.01;70.79
11212;BME280;5663;50.864;12.096;2023-04-08T06:04:08;99831.50;;;8.04;71.06
11212;BME280;5663;50.864;12.096;2023-04-08T06:06:37;99838.28;;;8.08;71.02
11212;BME280;5663;50.864;12.096;2023-04-08T06:09:05;99840.72;;;8.12;70.52
11212;BME280;5663;50.864;12.096;2023-04-08T06:11:34;99838.94;;;8.14;71.07
11212;BME280;5663;50.864;12.096;2023-04-08T06:14:02;99848.44;;;8.14;70.68
11212;BME280;5663;50.864;12.096;2023-04-08T06:16:30;99850.22;;;8.12;71.10
11212;BME280;5663;50.864;12.096;2023-04-08T06:18:59;99856.50;;;8.05;71.00
11212;BME280;5663;50.864;12.096;2023-04-08T06:21:26;99851.78;;;7.91;71.23
11212;BME280;5663;50.864;12.096;2023-04-08T06:23:55;99851.88;;;7.88;71.71
11212;BME280;5663;50.864;12.096;2023-04-08T06:26:23;99857.00;;;7.89;71.56
11212;BME280;5663;50.864;12.096;2023-04-08T06:28:51;99833.31;;;7.74;71.34
11212;BME280;5663;50.864;12.096;2023-04-08T06:31:19;99861.56;;;7.81;71.90
11212;BME280;5663;50.864;12.096;2023-04-08T06:33:46;99870.06;;;7.86;72.24
11212;BME280;5663;50.864;12.096;2023-04-08T06:36:16;99856.31;;;7.84;71.74
11212;BME280;5663;50.864;12.096;2023-04-08T06:38:43;99863.72;;;7.95;72.12
11212;BME280;5663;50.864;12.096;2023-04-08T06:41:11;99874.84;;;7.99;71.61
11212;BME280;5663;50.864;12.096;2023-04-08T06:43:39;99881.72;;;8.00;71.75
11212;BME280;5663;50.864;12.096;2023-04-08T06:46:06;99874.00;;;7.98;71.54
11212;BME280;5663;50.864;12.096;2023-04-08T06:48:34;99881.72;;;8.00;72.21
11212;BME280;5663;50.864;12.096;2023-04-08T06:51:03;99878.22;;;8.01;72.34
11212;BME280;5663;50.864;12.096;2023-04-08T06:53:32;99854.63;;;7.83;72.39
11212;BME280;5663;50.864;12.096;2023-04-08T06:56:00;99880.66;;;8.05;72.57
11212;BME280;5663;50.864;12.096;2023-04-08T06:58:27;99878.81;;;8.09;72.68
11212;BME280;5663;50.864;12.096;2023-04-08T07:00:55;99889.91;;;8.14;72.62
11212;BME280;5663;50.864;12.096;2023-04-08T07:03:24;99893.28;;;8.16;71.93
11212;BME280;5663;50.864;12.096;2023-04-08T07:05:51;99893.19;;;8.19;71.87
11212;BME280;5663;50.864;12.096;2023-04-08T07:08:19;99894.81;;;8.22;71.98
11212;BME280;5663;50.864;12.096;2023-04-08T07:10:51;99887.91;;;8.22;71.79
11212;BME280;5663;50.864;12.096;2023-04-08T07:13:18;99892.13;;;8.25;72.01
11212;BME280;5663;50.864;12.096;2023-04-08T07:15:47;99894.56;;;8.29;72.47
11212;BME280;5663;50.864;12.096;2023-04-08T07:18:15;99883.59;;;8.21;71.88
11212;BME280;5663;50.864;12.096;2023-04-08T07:20:43;99894.44;;;8.32;71.56
11212;BME280;5663;50.864;12.096;2023-04-08T07:23:10;99893.56;;;8.33;72.00
11212;BME280;5663;50.864;12.096;2023-04-08T07:25:38;99890.03;;;8.36;72.35
11212;BME280;5663;50.864;12.096;2023-04-08T07:28:07;99902.06;;;8.38;72.06
11212;BME280;5663;50.864;12.096;2023-04-08T07:30:35;99898.56;;;8.39;71.61
11212;BME280;5663;50.864;12.096;2023-04-08T07:33:03;99900.31;;;8.39;71.93
11212;BME280;5663;50.864;12.096;2023-04-08T07:35:30;99902.75;;;8.44;72.07
11212;BME280;5663;50.864;12.096;2023-04-08T07:37:58;99895.97;;;8.39;72.18
11212;BME280;5663;50.864;12.096;2023-04-08T07:40:28;99901.94;;;8.42;72.46
11212;BME280;5663;50.864;12.096;2023-04-08T07:42:56;99784.22;;;7.72;71.88
11212;BME280;5663;50.864;12.096;2023-04-08T07:45:25;99907.09;;;8.43;72.14
11212;BME280;5663;50.864;12.096;2023-04-08T07:47:53;99909.63;;;8.45;72.24
11212;BME280;5663;50.864;12.096;2023-04-08T07:50:20;99907.00;;;8.46;72.65
11212;BME280;5663;50.864;12.096;2023-04-08T07:52:49;99913.13;;;8.44;72.56
11212;BME280;5663;50.864;12.096;2023-04-08T07:55:18;99882.56;;;8.27;72.74
11212;BME280;5663;50.864;12.096;2023-04-08T07:57:47;99923.41;;;8.47;72.71
11212;BME280;5663;50.864;12.096;2023-04-08T08:00:17;99919.25;;;8.41;72.50
11212;BME280;5663;50.864;12.096;2023-04-08T08:02:48;99930.47;;;8.42;72.68
11212;BME280;5663;50.864;12.096;2023-04-08T08:05:16;99926.03;;;8.45;72.85
11212;BME280;5663;50.864;12.096;2023-04-08T08:07:45;99934.59;;;8.47;72.33
11212;BME280;5663;50.864;12.096;2023-04-08T08:10:14;99904.72;;;8.35;73.11
11212;BME280;5663;50.864;12.096;2023-04-08T08:12:42;99925.00;;;8.51;72.82
11212;BME280;5663;50.864;12.096;2023-04-08T08:15:11;99929.94;;;8.57;73.13
11212;BME280;5663;50.864;12.096;2023-04-08T08:17:39;99924.66;;;8.60;72.96
11212;BME280;5663;50.864;12.096;2023-04-08T08:20:10;99944.66;;;8.56;73.54
11212;BME280;5663;50.864;12.096;2023-04-08T08:22:39;99933.50;;;8.54;73.33
11212;BME280;5663;50.864;12.096;2023-04-08T08:25:12;99950.59;;;8.60;72.81
11212;BME280;5663;50.864;12.096;2023-04-08T08:27:41;99924.19;;;8.49;73.22
11212;BME280;5663;50.864;12.096;2023-04-08T08:30:09;99949.50;;;8.67;73.35
11212;BME280;5663;50.864;12.096;2023-04-08T08:32:40;99946.91;;;8.67;73.85
11212;BME280;5663;50.864;12.096;2023-04-08T08:35:10;99939.97;;;8.68;73.81
11212;BME280;5663;50.864;12.096;2023-04-08T08:37:41;99955.38;;;8.72;73.71
11212;BME280;5663;50.864;12.096;2023-04-08T08:40:09;99951.28;;;8.65;73.69
11212;BME280;5663;50.864;12.096;2023-04-08T08:42:38;99931.94;;;8.49;74.23
11212;BME280;5663;50.864;12.096;2023-04-08T08:45:08;99953.19;;;8.60;74.21
11212;BME280;5663;50.864;12.096;2023-04-08T08:47:37;99962.66;;;8.61;74.54
11212;BME280;5663;50.864;12.096;2023-04-08T08:50:23;99954.94;;;8.59;74.97
11212;BME280;5663;50.864;12.096;2023-04-08T08:53:00;99968.41;;;8.71;74.53
11212;BME280;5663;50.864;12.096;2023-04-08T08:55:31;99967.13;;;8.82;74.83
11212;BME280;5663;50.864;12.096;2023-04-08T08:57:59;99969.59;;;8.85;74.49
11212;BME280;5663;50.864;12.096;2023-04-08T09:00:32;99965.00;;;8.69;74.85
11212;BME280;5663;50.864;12.096;2023-04-08T09:03:16;99966.69;;;8.70;75.31
11212;BME280;5663;50.864;12.096;2023-04-08T09:05:49;99970.66;;;8.80;75.18
11212;BME280;5663;50.864;12.096;2023-04-08T09:08:27;99950.28;;;8.69;74.93
11212;BME280;5663;50.864;12.096;2023-04-08T09:10:56;99963.53;;;8.86;75.19
11212;BME280;5663;50.864;12.096;2023-04-08T09:13:38;99981.03;;;9.05;74.88
11212;BME280;5663;50.864;12.096;2023-04-08T09:16:06;99979.19;;;9.08;74.90
11212;BME280;5663;50.864;12.096;2023-04-08T09:18:37;99984.22;;;9.13;74.23
11212;BME280;5663;50.864;12.096;2023-04-08T09:21:06;99984.22;;;9.13;74.60
11212;BME280;5663;50.864;12.096;2023-04-08T09:23:40;99990.09;;;9.18;74.59
11212;BME280;5663;50.864;12.096;2023-04-08T09:26:12;99986.28;;;9.28;74.74
11212;BME280;5663;50.864;12.096;2023-04-08T09:28:56;99992.75;;;9.42;74.69
11212;BME280;5663;50.864;12.096;2023-04-08T09:31:29;99997.69;;;9.48;74.19
11212;BME280;5663;50.864;12.096;2023-04-08T09:34:00;99992.50;;;9.48;73.82
11212;BME280;5663;50.864;12.096;2023-04-08T09:36:37;100002.69;;;9.54;74.02
11212;BME280;5663;50.864;12.096;2023-04-08T09:39:06;100000.97;;;9.53;73.72
11212;BME280;5663;50.864;12.096;2023-04-08T09:41:36;99995.91;;;9.50;73.86
11212;BME280;5663;50.864;12.096;2023-04-08T09:44:06;99999.09;;;9.56;73.89
11212;BME280;5663;50.864;12.096;2023-04-08T09:46:39;100006.59;;;9.64;73.39
11212;BME280;5663;50.864;12.096;2023-04-08T09:49:11;99998.59;;;9.70;73.17
11212;BME280;5663;50.864;12.096;2023-04-08T09:51:45;100003.44;;;9.79;73.64
11212;BME280;5663;50.864;12.096;2023-04-08T09:54:19;100004.91;;;9.86;73.55
11212;BME280;5663;50.864;12.096;2023-04-08T09:56:55;100012.28;;;9.97;73.29
11212;BME280;5663;50.864;12.096;2023-04-08T09:59:30;100007.59;;;10.07;73.34
11212;BME280;5663;50.864;12.096;2023-04-08T10:02:06;100004.09;;;10.08;73.12
11212;BME280;5663;50.864;12.096;2023-04-08T10:04:38;100009.28;;;10.08;73.10
11212;BME280;5663;50.864;12.096;2023-04-08T10:07:09;100005.50;;;9.93;72.49
11212;BME280;5663;50.864;12.096;2023-04-08T10:09:37;100008.81;;;9.98;72.29
11212;BME280;5663;50.864;12.096;2023-04-08T10:12:08;100012.72;;;9.86;72.23
11212;BME280;5663;50.864;12.096;2023-04-08T10:14:36;99972.75;;;9.67;72.54
11212;BME280;5663;50.864;12.096;2023-04-08T10:17:26;100009.03;;;9.92;72.51
11212;BME280;5663;50.864;12.096;2023-04-08T10:19:54;100004.34;;;10.02;72.34
11212;BME280;5663;50.864;12.096;2023-04-08T10:22:47;100014.91;;;10.19;71.55
11212;BME280;5663;50.864;12.096;2023-04-08T10:25:28;100009.84;;;10.16;71.56
11212;BME280;5663;50.864;12.096;2023-04-08T10:27:58;100012.13;;;10.25;71.47
11212;BME280;5663;50.864;12.096;2023-04-08T10:30:41;100011.03;;;10.31;71.23
11212;BME280;5663;50.864;12.096;2023-04-08T10:33:10;100012.53;;;10.36;70.89
11212;BME280;5663;50.864;12.096;2023-04-08T10:35:41;100017.69;;;10.38;70.56
11212;BME280;5663;50.864;12.096;2023-04-08T10:38:13;100019.44;;;10.38;70.60
11212;BME280;5663;50.864;12.096;2023-04-08T10:40:43;100018.91;;;10.29;70.32
11212;BME280;5663;50.864;12.096;2023-04-08T10:43:13;100002.16;;;10.13;70.12
11212;BME280;5663;50.864;12.096;2023-04-08T10:45:43;100019.94;;;10.25;69.93
11212;BME280;5663;50.864;12.096;2023-04-08T10:48:12;100020.63;;;10.29;70.35
11212;BME280;5663;50.864;12.096;2023-04-08T10:50:42;100014.41;;;10.33;70.22
11212;BME280;5663;50.864;12.096;2023-04-08T10:53:13;100014.16;;;10.39;69.84
11212;BME280;5663;50.864;12.096;2023-04-08T10:55:41;100015.97;;;10.37;69.70
11212;BME280;5663;50.864;12.096;2023-04-08T10:58:10;100009.81;;;10.40;69.41
11212;BME280;5663;50.864;12.096;2023-04-08T11:00:39;100001.94;;;10.41;69.42
11212;BME280;5663;50.864;12.096;2023-04-08T11:03:08;99959.53;;;10.17;69.62
11212;BME280;5663;50.864;12.096;2023-04-08T11:05:37;100009.72;;;10.63;69.18
11212;BME280;5663;50.864;12.096;2023-04-08T11:08:05;100008.47;;;10.73;69.15
11212;BME280;5663;50.864;12.096;2023-04-08T11:10:37;100015.28;;;10.76;69.14
11212;BME280;5663;50.864;12.096;2023-04-08T11:13:07;100007.94;;;10.85;68.93
11212;BME280;5663;50.864;12.096;2023-04-08T11:15:36;100019.00;;;10.91;68.93
11212;BME280;5663;50.864;12.096;2023-04-08T11:18:05;100016.13;;;10.97;68.74
11212;BME280;5663;50.864;12.096;2023-04-08T11:20:33;100021.94;;;11.03;68.28
11212;BME280;5663;50.864;12.096;2023-04-08T11:23:02;99984.00;;;10.77;68.27
11212;BME280;5663;50.864;12.096;2023-04-08T11:25:30;100017.16;;;10.93;68.12
11212;BME280;5663;50.864;12.096;2023-04-08T11:28:01;99989.34;;;10.74;67.90
11212;BME280;5663;50.864;12.096;2023-04-08T11:30:29;100021.47;;;10.94;67.58
11212;BME280;5663;50.864;12.096;2023-04-08T11:33:00;99976.16;;;10.57;67.17
11212;BME280;5663;50.864;12.096;2023-04-08T11:35:29;100017.81;;;10.77;67.12
11212;BME280;5663;50.864;12.096;2023-04-08T11:37:58;100021.31;;;10.76;67.40
11212;BME280;5663;50.864;12.096;2023-04-08T11:40:26;99995.69;;;10.67;67.59
11212;BME280;5663;50.864;12.096;2023-04-08T11:42:56;100007.41;;;10.77;67.72
11212;BME280;5663;50.864;12.096;2023-04-08T11:45:27;99975.91;;;10.63;67.59
11212;BME280;5663;50.864;12.096;2023-04-08T11:47:57;100021.41;;;10.95;67.41
11212;BME280;5663;50.864;12.096;2023-04-08T11:50:26;100016.84;;;11.00;66.72
11212;BME280;5663;50.864;12.096;2023-04-08T11:52:56;100014.19;;;11.02;66.61
11212;BME280;5663;50.864;12.096;2023-04-08T11:55:26;99993.75;;;10.93;66.45
11212;BME280;5663;50.864;12.096;2023-04-08T11:58:01;100001.38;;;10.97;66.67
11212;BME280;5663;50.864;12.096;2023-04-08T12:00:33;100016.00;;;11.00;66.45
11212;BME280;5663;50.864;12.096;2023-04-08T12:03:02;100015.88;;;11.03;66.76
11212;BME280;5663;50.864;12.096;2023-04-08T12:05:29;100012.94;;;11.10;66.58
11212;BME280;5663;50.864;12.096;2023-04-08T12:07:57;100018.88;;;11.14;66.44
11212;BME280;5663;50.864;12.096;2023-04-08T12:10:25;100023.81;;;11.20;66.36
11212;BME280;5663;50.864;12.096;2023-04-08T12:12:53;100027.22;;;11.22;66.36
11212;BME280;5663;50.864;12.096;2023-04-08T12:15:20;100018.47;;;11.23;66.46
11212;BME280;5663;50.864;12.096;2023-04-08T12:17:50;100033.06;;;11.27;66.09
11212;BME280;5663;50.864;12.096;2023-04-08T12:20:18;100031.09;;;11.32;65.73
11212;BME280;5663;50.864;12.096;2023-04-08T12:22:46;100029.06;;;11.39;64.94
11212;BME280;5663;50.864;12.096;2023-04-08T12:25:14;99950.41;;;10.92;64.99
11212;BME280;5663;50.864;12.096;2023-04-08T12:27:41;100028.81;;;11.45;64.50
11212;BME280;5663;50.864;12.096;2023-04-08T12:30:13;100041.06;;;11.43;64.19
11212;BME280;5663;50.864;12.096;2023-04-08T12:32:47;100042.38;;;11.33;63.50
11212;BME280;5663;50.864;12.096;2023-04-08T12:35:27;100020.97;;;11.06;62.73
11212;BME280;5663;50.864;12.096;2023-04-08T12:38:09;100046.59;;;11.15;63.10
11212;BME280;5663;50.864;12.096;2023-04-08T12:40:38;100050.88;;;11.16;63.17
11212;BME280;5663;50.864;12.096;2023-04-08T12:43:09;100040.47;;;11.16;63.00
11212;BME280;5663;50.864;12.096;2023-04-08T12:45:40;100048.88;;;11.23;62.93
11212;BME280;5663;50.864;12.096;2023-04-08T12:48:13;100029.28;;;11.14;63.63
11212;BME280;5663;50.864;12.096;2023-04-08T12:50:56;100042.56;;;11.28;64.30
11212;BME280;5663;50.864;12.096;2023-04-08T12:53:33;100045.66;;;11.37;64.40
11212;BME280;5663;50.864;12.096;2023-04-08T12:56:05;100045.41;;;11.43;64.72
11212;BME280;5663;50.864;12.096;2023-04-08T12:58:37;100040.06;;;11.46;64.76
11212;BME280;5663;50.864;12.096;2023-04-08T13:01:07;100045.59;;;11.58;64.58
11212;BME280;5663;50.864;12.096;2023-04-08T13:03:37;100047.84;;;11.66;64.54
11212;BME280;5663;50.864;12.096;2023-04-08T13:06:07;100043.84;;;11.78;64.88
11212;BME280;5663;50.864;12.096;2023-04-08T13:08:47;100044.78;;;11.77;63.73
11212;BME280;5663;50.864;12.096;2023-04-08T13:11:18;100046.59;;;11.75;63.78
11212;BME280;5663;50.864;12.096;2023-04-08T13:13:47;100033.06;;;11.67;63.32
11212;BME280;5663;50.864;12.096;2023-04-08T13:16:19;100031.44;;;11.64;63.16
11212;BME280;5663;50.864;12.096;2023-04-08T13:18:48;100035.75;;;11.65;62.47